Lake, MI (48632)

9:28 PM EDT on August 27, 2014 (GMT -0400)
KMILAKE9 | Change Station
CLOSE
Current Station
Personal Weather Station
Location: Lake, MI
Elevation: 1089 ft
Nearby Weather Stations

Elev 1089 ft 43.83 °N, 85.02 °W | Updated 6 seconds ago

Partly Cloudy
Partly Cloudy
61.7 °F
Feels Like 61.7 °F
N
0.0
Wind Variable Wind from NNE
Gusts 0.0 mph

Today
High -- | Low -- °F
--% Chance of Precip.
Yesterday
High -- | Low -- °F
Precip. -- in
6:57 AM 8:24 PM
Waxing Crescent, 5% visible
Pressure 30.13 in
Visibility 10.0 miles
Clouds Overcast 5000 ft
Dew Point 54 °F
Humidity 76%
Rainfall 0.00 in
Snow Depth Not available.
UV 0 out of 12
Pollen 9.90 out of 12
Ozone Good
Flu Activity Not available.
METAR KMOP 280117Z AUTO 01004KT 10SM OVC050 18/12 A3013 RMK AO2 T01760117

More Conditions Fewer Conditions

Pressure 30.13 in
Visibility 10.0 miles
Clouds Overcast 5000 ft
Dew Point 54 °F
Humidity 76%
Rainfall 0.00 in
Snow Depth Not available.
UV 0 out of 12
Pollen 9.90 out of 12
Ozone Good
Flu Activity Not available.
METAR KMOP 280117Z AUTO 01004KT 10SM OVC050 18/12 A3013 RMK AO2 T01760117

More Conditions Fewer Conditions

10-Day Weather Forecast

Almanac

Astronomy

Aug. 27, 2014 Rise Set
Actual Time 6:57 AM EDT 8:24 PM EDT
Civil Twilight 6:27 AM EDT 8:54 PM EDT
Nautical Twilight 5:51 AM EDT 9:30 PM EDT
Astronomical Twilight 5:12 AM EDT 10:09 PM EDT
Moon 8:58 AM EDT (8/27) 9:09 PM EDT (8/27)
Length of Visible Light 14h 26m
Length of Day
13h 26m
Tomorrow will be 2m 52s shorter.
Waxing Crescent, 5% of the Moon is Illuminated
Today
Waxing Crescent
Sep 2
First Quarter
Sep 8
Full
Sep 15
Last Quarter
Sep 24
New

Today's Extremes

State Highs State Lows

Community

WunderPhotos

Upload Photos

1,747,845 photos uploaded!

Nearby

Air Quality

  Air Quality AQ Index Pollutant
Yesterday Good
PM2.5
Yesterday Good
OZONE
Current Good
OZONE
Wednesday Good
OZONE
Wednesday Good
PM2.5
Thursday Good
OZONE
Thursday Good
PM2.5
Friday Good
OZONE
Friday Good
PM2.5

Snow Depth

Station Depth Elevation
No new snow has been reported.

Earthquake Activity

City Distance Mag. Time & Date
No recent earthquake activity has been reported nearby.
Minimum magnitude displayed is 2.5.

Coastal Water Temperatures

Place Temperature
No Stations Reporting

Nearby Weather Stations